Terminal Aerodrome Forecast
Issued by NWS Louisville, KY

Home | Current Version | Previous Version | Text Only | Print | Product List | Glossary On
Versions: 1 2 3 4 5 6 7 8 9 10 11 12 13
000
FTUS43 KLMK 250500
TAFBWG
TAF
KBWG 250520Z 2506/2606 18010KT P6SM BKN060 WS020/18037KT
     FM251200 19012G18KT P6SM VCSH BKN040
     FM251500 19012G21KT P6SM VCTS BKN030CB
     FM252200 16008KT P6SM BKN070=

USA.gov is the U.S. government's official web portal to all federal, state and local government web resources and services.